Time;durP1;ratioP1;P1;durP2;ratioP2;P2;SDS_P1;SDS_P2;PMS_P1;PMS_P2;Temp;Humidity;BMP_temperature;BMP_pressure;BME280_temperature;BME280_humidity;BME280_pressure;Samples;Min_cycle;Max_cycle;Signal;HPM_P1;HPM_P2
2023/12/29 00:02:23;;;;;;;7.78;2.33;;;10.10;99.90;;;;;;4852338;29;20046;-79
2023/12/29 00:04:48;;;;;;;9.82;2.30;;;10.10;99.90;;;;;;4837030;29;20053;-80
2023/12/29 00:07:15;;;;;;;7.35;2.17;;;10.10;99.90;;;;;;4838226;29;20141;-80
2023/12/29 00:09:41;;;;;;;7.93;2.17;;;10.00;99.90;;;;;;4835931;29;20058;-80
2023/12/29 00:12:07;;;;;;;8.27;2.00;;;10.10;99.90;;;;;;4838079;29;20140;-82
2023/12/29 00:14:36;;;;;;;8.43;2.22;;;10.10;99.90;;;;;;4836711;29;20054;-80
2023/12/29 00:17:03;;;;;;;10.35;2.15;;;10.40;99.90;;;;;;4836142;29;20049;-81
2023/12/29 00:19:28;;;;;;;6.78;2.35;;;10.10;99.90;;;;;;4837093;29;20137;-80
2023/12/29 00:21:54;;;;;;;8.73;2.33;;;10.10;99.90;;;;;;4837574;29;20144;-80
2023/12/29 00:24:20;;;;;;;5.18;1.70;;;10.00;99.90;;;;;;4836911;29;20086;-81
2023/12/29 00:26:47;;;;;;;8.75;2.55;;;10.10;99.90;;;;;;4830675;29;20041;-80
2023/12/29 00:29:15;;;;;;;6.95;1.90;;;10.00;99.90;;;;;;4837786;29;20054;-80
2023/12/29 00:31:40;;;;;;;8.88;2.03;;;10.00;99.90;;;;;;4837265;29;20098;-80
2023/12/29 00:34:06;;;;;;;7.30;1.98;;;10.00;99.90;;;;;;4833094;29;20058;-80
2023/12/29 00:36:32;;;;;;;6.60;1.83;;;10.00;99.90;;;;;;4837693;29;20046;-80
2023/12/29 00:38:57;;;;;;;8.95;2.33;;;10.50;99.90;;;;;;4836831;29;20050;-81
2023/12/29 00:41:23;;;;;;;10.15;2.80;;;9.70;99.90;;;;;;4836837;29;20132;-80
2023/12/29 00:43:48;;;;;;;7.85;2.67;;;9.60;99.90;;;;;;4836238;29;20050;-80
2023/12/29 00:46:17;;;;;;;6.00;2.30;;;9.50;99.90;;;;;;4835433;29;20050;-80
2023/12/29 00:48:43;;;;;;;10.18;2.38;;;9.40;99.90;;;;;;4836858;29;20050;-82
2023/12/29 00:51:08;;;;;;;8.63;2.70;;;9.40;99.90;;;;;;4835965;29;20046;-80
2023/12/29 00:53:35;;;;;;;11.70;3.05;;;9.30;99.90;;;;;;4835391;29;20057;-80
2023/12/29 00:56:02;;;;;;;16.63;2.90;;;9.40;99.90;;;;;;4835680;29;20488;-79
2023/12/29 00:58:27;;;;;;;11.25;2.80;;;9.30;99.90;;;;;;4835869;29;20053;-79
2023/12/29 01:00:53;;;;;;;10.23;3.03;;;9.30;99.90;;;;;;4831235;29;20107;-80
2023/12/29 01:03:20;;;;;;;6.90;2.78;;;9.30;99.90;;;;;;4831291;29;20050;-79
2023/12/29 01:05:45;;;;;;;8.02;2.83;;;9.30;99.90;;;;;;4837158;29;20050;-81
2023/12/29 01:08:11;;;;;;;10.57;2.70;;;9.30;99.90;;;;;;4833970;29;20093;-81
2023/12/29 01:10:37;;;;;;;11.30;3.00;;;9.30;99.90;;;;;;4836462;29;20102;-80
2023/12/29 01:13:03;;;;;;;12.95;2.75;;;9.30;99.90;;;;;;4836354;29;20057;-82
2023/12/29 01:15:28;;;;;;;10.73;3.45;;;9.30;99.90;;;;;;4851293;29;20050;-79
2023/12/29 01:17:54;;;;;;;10.95;2.85;;;9.30;99.90;;;;;;4851029;29;20053;-81
2023/12/29 01:20:20;;;;;;;11.77;3.25;;;9.50;99.90;;;;;;4834916;29;20069;-80
2023/12/29 01:22:45;;;;;;;13.40;3.33;;;9.30;99.90;;;;;;4836841;29;20093;-80
2023/12/29 01:25:11;;;;;;;13.32;3.35;;;9.50;99.90;;;;;;4833603;29;20081;-79
2023/12/29 01:27:36;;;;;;;13.30;3.63;;;9.30;99.90;;;;;;4836454;29;20061;-80
2023/12/29 01:30:02;;;;;;;10.65;3.67;;;9.30;99.90;;;;;;4835588;29;20087;-80
2023/12/29 01:32:28;;;;;;;12.25;3.67;;;9.30;99.90;;;;;;4836044;29;20373;-79
2023/12/29 01:34:53;;;;;;;12.68;3.40;;;9.30;99.90;;;;;;4833279;29;20054;-79
2023/12/29 01:37:19;;;;;;;11.77;3.30;;;9.30;99.90;;;;;;4836721;29;20064;-80
2023/12/29 01:39:45;;;;;;;12.45;3.80;;;9.40;99.90;;;;;;4836554;29;20172;-79
2023/12/29 01:42:13;;;;;;;15.25;3.17;;;9.30;99.90;;;;;;4837733;29;20102;-82
2023/12/29 01:44:39;;;;;;;12.82;3.42;;;9.30;99.90;;;;;;4837185;29;20054;-80
2023/12/29 01:47:13;;;;;;;13.00;3.60;;;9.40;99.90;;;;;;4834677;29;20070;-79
2023/12/29 01:49:39;;;;;;;9.18;3.47;;;9.40;99.90;;;;;;4836898;29;20390;-82
2023/12/29 01:52:06;;;;;;;7.55;2.40;;;9.50;99.90;;;;;;4850184;29;20054;-81
2023/12/29 01:54:40;;;;;;;7.90;2.78;;;9.50;99.90;;;;;;4835227;29;20462;-82
2023/12/29 01:57:08;;;;;;;7.55;2.38;;;9.50;99.90;;;;;;4836310;29;20381;-79
2023/12/29 01:59:35;;;;;;;9.07;3.03;;;9.50;99.90;;;;;;4832263;29;20050;-81
2023/12/29 02:02:01;;;;;;;8.52;2.80;;;9.60;99.90;;;;;;4836646;29;20416;-81
2023/12/29 02:04:28;;;;;;;11.07;3.30;;;9.60;99.90;;;;;;4836783;29;20070;-82
2023/12/29 02:06:55;;;;;;;13.82;2.97;;;10.10;99.90;;;;;;4835944;29;20554;-79
2023/12/29 02:09:20;;;;;;;7.78;2.65;;;9.80;99.90;;;;;;4850026;29;20057;-79
2023/12/29 02:11:47;;;;;;;11.10;3.20;;;9.60;99.90;;;;;;4836748;29;20057;-81
2023/12/29 02:14:14;;;;;;;8.32;2.75;;;9.60;99.90;;;;;;4819639;29;20114;-80
2023/12/29 02:17:15;;;;;;;8.73;3.28;;;10.40;99.90;;;;;;4836245;29;20058;-81
2023/12/29 02:19:43;;;;;;;10.30;2.85;;;9.70;99.90;;;;;;4815769;29;20061;-79
2023/12/29 02:22:10;;;;;;;11.35;3.40;;;9.70;99.90;;;;;;4818960;29;20545;-81
2023/12/29 02:24:36;;;;;;;12.68;3.30;;;9.70;99.90;;;;;;4826922;29;20451;-81
2023/12/29 02:27:17;;;;;;;8.98;3.05;;;9.70;99.90;;;;;;4835325;29;20042;-80
2023/12/29 02:29:48;;;;;;;7.38;2.78;;;9.80;99.90;;;;;;4853719;29;20057;-79
2023/12/29 02:32:17;;;;;;;9.65;2.97;;;9.80;99.90;;;;;;4837487;29;20488;-82
2023/12/29 02:34:44;;;;;;;9.70;2.63;;;9.90;99.90;;;;;;4837938;29;20088;-80
2023/12/29 02:37:12;;;;;;;8.35;2.58;;;9.90;99.90;;;;;;4823883;29;20084;-81
2023/12/29 02:39:37;;;;;;;13.68;3.63;;;9.90;99.90;;;;;;4839806;29;20057;-79
2023/12/29 02:42:03;;;;;;;8.50;2.97;;;9.90;99.90;;;;;;4853446;29;20642;-81
2023/12/29 02:44:29;;;;;;;9.85;3.03;;;9.90;99.90;;;;;;4825955;29;20054;-81
2023/12/29 02:46:55;;;;;;;12.13;3.15;;;9.80;99.90;;;;;;4824937;29;20053;-80
2023/12/29 02:49:20;;;;;;;10.32;2.72;;;9.80;99.90;;;;;;4832331;29;20046;-79
2023/12/29 02:51:47;;;;;;;11.75;2.60;;;9.80;99.90;;;;;;4838900;29;21544;-81
2023/12/29 02:54:13;;;;;;;11.25;3.00;;;10.60;99.90;;;;;;4827066;29;20133;-82
2023/12/29 02:56:39;;;;;;;11.30;3.00;;;9.80;99.90;;;;;;4839060;29;20590;-81
2023/12/29 02:59:04;;;;;;;12.18;2.45;;;10.00;99.90;;;;;;4838388;29;20049;-80
2023/12/29 03:01:32;;;;;;;12.00;2.78;;;9.80;99.90;;;;;;4837742;29;20500;-81
2023/12/29 03:03:57;;;;;;;10.70;3.25;;;9.90;99.90;;;;;;4838074;29;20543;-79
2023/12/29 03:06:24;;;;;;;11.30;2.80;;;10.00;99.90;;;;;;4831318;29;20061;-80
2023/12/29 03:08:50;;;;;;;8.60;3.13;;;11.10;99.90;;;;;;4839084;29;20509;-81
2023/12/29 03:11:16;;;;;;;12.15;3.65;;;9.90;99.90;;;;;;4837912;29;20054;-81
2023/12/29 03:13:41;;;;;;;10.13;3.08;;;9.90;99.90;;;;;;4839451;29;20041;-81
2023/12/29 03:16:07;;;;;;;13.45;2.97;;;9.80;99.90;;;;;;4837816;29;20038;-81
2023/12/29 03:18:32;;;;;;;12.27;2.80;;;9.80;99.90;;;;;;4851988;29;20050;-80
2023/12/29 03:20:58;;;;;;;11.40;3.53;;;9.80;99.90;;;;;;4838999;29;20186;-80
2023/12/29 03:23:24;;;;;;;10.40;3.03;;;9.80;99.90;;;;;;4836296;29;20150;-79
2023/12/29 03:25:49;;;;;;;13.27;3.55;;;9.80;99.90;;;;;;4849987;29;20497;-81
2023/12/29 03:28:15;;;;;;;8.32;2.65;;;9.80;99.90;;;;;;4830041;29;20049;-80
2023/12/29 03:30:40;;;;;;;12.20;2.80;;;9.80;99.90;;;;;;4839233;29;20049;-80
2023/12/29 03:33:06;;;;;;;8.23;2.90;;;9.70;99.90;;;;;;4836629;29;20416;-80
2023/12/29 03:35:31;;;;;;;8.02;2.67;;;9.70;99.90;;;;;;4838696;29;20069;-81
2023/12/29 03:37:57;;;;;;;8.27;3.08;;;9.70;99.90;;;;;;4836855;29;20453;-81
2023/12/29 03:40:23;;;;;;;9.52;3.20;;;9.70;99.90;;;;;;4836650;29;20073;-80
2023/12/29 03:42:48;;;;;;;10.65;3.08;;;9.70;99.90;;;;;;4836837;29;20053;-80
2023/12/29 03:45:14;;;;;;;12.43;2.70;;;9.70;99.90;;;;;;4837225;29;20050;-80
2023/12/29 03:47:39;;;;;;;11.07;2.90;;;9.60;99.90;;;;;;4837037;29;20421;-80
2023/12/29 03:50:05;;;;;;;13.35;3.25;;;9.60;99.90;;;;;;4838115;29;20844;-80
2023/12/29 03:52:31;;;;;;;9.38;2.63;;;9.60;99.90;;;;;;4836597;29;20061;-81
2023/12/29 03:54:57;;;;;;;7.68;2.50;;;9.60;99.90;;;;;;4836720;29;20054;-81
2023/12/29 03:57:22;;;;;;;8.82;2.40;;;9.50;99.90;;;;;;4838257;29;20462;-80
2023/12/29 03:59:48;;;;;;;6.50;2.28;;;9.50;99.90;;;;;;4837837;29;20053;-81
2023/12/29 04:02:13;;;;;;;11.93;3.45;;;9.50;99.90;;;;;;4852447;29;20120;-81
2023/12/29 04:04:39;;;;;;;10.05;2.70;;;9.50;99.90;;;;;;4836804;29;20135;-80
2023/12/29 04:07:05;;;;;;;11.65;2.80;;;9.50;99.90;;;;;;4836719;29;20168;-82
2023/12/29 04:09:31;;;;;;;7.95;2.95;;;9.50;99.90;;;;;;4837097;29;20706;-81
2023/12/29 04:11:56;;;;;;;11.23;3.00;;;9.50;99.90;;;;;;4832012;29;20050;-80
2023/12/29 04:14:22;;;;;;;12.43;3.00;;;9.50;99.90;;;;;;4830539;29;20045;-80
2023/12/29 04:16:47;;;;;;;12.70;4.25;;;9.60;99.90;;;;;;4827075;29;20752;-80
2023/12/29 04:19:13;;;;;;;12.32;2.90;;;9.40;99.90;;;;;;4835661;29;20185;-81
2023/12/29 04:21:38;;;;;;;13.18;3.58;;;9.40;99.90;;;;;;4836517;29;20516;-80
2023/12/29 04:24:04;;;;;;;13.20;3.47;;;9.40;99.90;;;;;;4831770;29;20057;-80
2023/12/29 04:26:34;;;;;;;12.88;3.65;;;9.30;99.90;;;;;;4836292;29;20068;-80
2023/12/29 04:29:00;;;;;;;12.90;3.30;;;9.40;99.90;;;;;;4837460;29;20057;-80
2023/12/29 04:31:26;;;;;;;14.43;3.10;;;10.30;99.90;;;;;;4837285;29;20129;-79
2023/12/29 04:33:51;;;;;;;11.02;3.00;;;9.40;99.90;;;;;;4837435;29;20093;-80
2023/12/29 04:36:17;;;;;;;14.55;3.25;;;9.40;99.90;;;;;;4836867;29;20144;-79
2023/12/29 04:38:42;;;;;;;11.77;3.28;;;10.10;99.90;;;;;;4848516;29;20504;-82
2023/12/29 04:41:12;;;;;;;16.67;3.45;;;9.40;99.90;;;;;;4818731;29;20082;-80
2023/12/29 04:43:37;;;;;;;17.83;3.40;;;9.40;99.90;;;;;;4825787;29;20504;-81
2023/12/29 04:46:03;;;;;;;16.15;3.40;;;9.40;99.90;;;;;;4837502;29;20046;-79
2023/12/29 04:48:29;;;;;;;14.82;3.00;;;9.40;99.90;;;;;;4851981;29;20774;-81
2023/12/29 04:50:54;;;;;;;9.20;3.25;;;9.30;99.90;;;;;;4836214;29;20559;-80
2023/12/29 04:53:20;;;;;;;11.93;3.13;;;9.30;99.90;;;;;;4837228;29;20046;-81
2023/12/29 04:55:45;;;;;;;13.02;3.10;;;9.30;99.90;;;;;;4826542;29;20050;-80
2023/12/29 04:58:11;;;;;;;17.70;3.20;;;9.30;99.90;;;;;;4836129;29;20072;-80
2023/12/29 05:00:37;;;;;;;16.85;3.20;;;9.30;99.90;;;;;;4837379;29;20046;-80
2023/12/29 05:03:03;;;;;;;14.25;3.20;;;9.30;99.90;;;;;;4836492;29;20128;-80
2023/12/29 05:05:28;;;;;;;18.08;3.13;;;9.30;99.90;;;;;;4836477;29;20146;-79
2023/12/29 05:07:54;;;;;;;10.85;3.00;;;9.30;99.90;;;;;;4837469;29;20461;-81
2023/12/29 05:10:20;;;;;;;13.30;3.00;;;9.30;99.90;;;;;;4835822;29;20053;-79
2023/12/29 05:12:45;;;;;;;13.05;3.13;;;9.40;99.90;;;;;;4848256;29;20058;-79
2023/12/29 05:15:11;;;;;;;14.02;3.00;;;9.30;99.90;;;;;;4824145;29;20792;-79
2023/12/29 05:17:38;;;;;;;17.58;3.15;;;9.30;99.90;;;;;;4836829;29;20046;-80
2023/12/29 05:20:06;;;;;;;11.65;2.75;;;9.30;99.90;;;;;;4835771;29;20371;-80
2023/12/29 05:22:32;;;;;;;13.90;2.80;;;9.30;99.90;;;;;;4833318;29;20070;-80
2023/12/29 05:25:00;;;;;;;12.45;2.67;;;9.30;99.90;;;;;;4836111;29;20057;-80
2023/12/29 05:27:26;;;;;;;11.38;2.90;;;9.40;99.90;;;;;;4818460;29;20066;-80
2023/12/29 05:29:51;;;;;;;17.45;3.40;;;10.00;99.90;;;;;;4825671;29;20054;-79
2023/12/29 05:32:17;;;;;;;12.00;2.47;;;9.40;99.90;;;;;;4835895;29;20050;-80
2023/12/29 05:34:43;;;;;;;15.43;2.55;;;10.20;99.90;;;;;;4836198;29;20070;-80
2023/12/29 05:37:08;;;;;;;12.23;3.33;;;9.40;99.90;;;;;;4836165;29;20054;-80
2023/12/29 05:39:34;;;;;;;11.93;2.95;;;9.50;99.90;;;;;;4849823;29;20094;-80
2023/12/29 05:42:00;;;;;;;12.35;2.88;;;9.40;99.90;;;;;;4834610;29;20054;-80
2023/12/29 05:44:25;;;;;;;14.40;3.30;;;9.40;99.90;;;;;;4836429;29;20042;-80
2023/12/29 05:46:54;;;;;;;12.57;2.92;;;9.40;99.90;;;;;;4835166;29;20054;-80
2023/12/29 05:49:24;;;;;;;14.25;3.40;;;9.40;99.90;;;;;;4829621;29;20217;-82
2023/12/29 05:51:50;;;;;;;14.13;2.72;;;9.30;99.90;;;;;;4840717;29;20057;-81
2023/12/29 05:54:18;;;;;;;15.52;2.95;;;9.30;99.90;;;;;;4835315;29;20847;-80
2023/12/29 05:56:44;;;;;;;14.68;2.92;;;9.30;99.90;;;;;;4819662;29;20061;-79
2023/12/29 05:59:09;;;;;;;13.13;3.33;;;9.30;99.90;;;;;;4836449;29;20041;-81
2023/12/29 06:01:35;;;;;;;18.58;3.38;;;9.30;99.90;;;;;;4835426;29;20088;-79
2023/12/29 06:04:00;;;;;;;19.52;4.05;;;9.30;99.90;;;;;;4839804;29;20050;-80
2023/12/29 06:06:26;;;;;;;11.05;2.97;;;9.30;99.90;;;;;;4839773;29;20110;-80
2023/12/29 06:08:51;;;;;;;15.57;3.67;;;9.30;99.90;;;;;;4853980;29;20114;-79
2023/12/29 06:11:17;;;;;;;15.43;3.33;;;9.30;99.90;;;;;;4840613;29;20129;-79
2023/12/29 06:13:43;;;;;;;12.55;3.55;;;9.30;99.90;;;;;;4840366;29;20058;-80
2023/12/29 06:16:08;;;;;;;25.13;3.45;;;9.30;99.90;;;;;;4850294;29;20050;-80
2023/12/29 06:18:34;;;;;;;20.33;3.92;;;8.90;99.90;;;;;;4830748;29;20038;-82
2023/12/29 06:21:02;;;;;;;14.95;2.95;;;9.40;99.90;;;;;;4840269;29;20082;-82
2023/12/29 06:23:28;;;;;;;16.42;2.85;;;9.70;99.90;;;;;;4829718;29;20080;-81
2023/12/29 06:25:54;;;;;;;17.38;3.72;;;9.40;99.90;;;;;;4831692;29;20049;-81
2023/12/29 06:28:20;;;;;;;17.85;3.42;;;9.40;99.90;;;;;;4836712;29;20052;-81
2023/12/29 06:30:46;;;;;;;17.83;3.83;;;9.40;99.90;;;;;;4838503;29;20054;-81
2023/12/29 06:33:11;;;;;;;26.23;3.53;;;9.40;99.90;;;;;;4839154;29;20060;-81
2023/12/29 06:35:38;;;;;;;16.00;3.75;;;10.10;99.90;;;;;;4839695;29;20069;-81
2023/12/29 06:38:04;;;;;;;25.50;4.32;;;9.40;99.90;;;;;;4839570;29;20447;-81
2023/12/29 06:40:30;;;;;;;12.77;3.63;;;9.30;99.90;;;;;;4838147;29;20171;-80
2023/12/29 06:42:55;;;;;;;22.42;4.00;;;9.30;99.90;;;;;;4823288;29;20047;-80
2023/12/29 06:45:21;;;;;;;17.95;3.75;;;9.30;99.90;;;;;;4828355;29;20057;-80
2023/12/29 06:47:46;;;;;;;18.75;3.85;;;9.30;99.90;;;;;;4837607;29;20081;-80
2023/12/29 06:50:12;;;;;;;20.95;3.85;;;9.30;99.90;;;;;;4837941;29;20397;-81
2023/12/29 06:52:39;;;;;;;24.23;4.13;;;9.90;99.90;;;;;;4836811;29;20118;-80
2023/12/29 06:55:05;;;;;;;18.98;4.90;;;9.40;99.90;;;;;;4837842;29;20701;-80
2023/12/29 06:57:33;;;;;;;21.15;3.72;;;9.40;99.90;;;;;;4834306;29;20046;-80
2023/12/29 06:59:59;;;;;;;21.23;3.90;;;9.40;99.90;;;;;;4823026;29;20061;-80
2023/12/29 07:02:24;;;;;;;19.42;4.00;;;9.40;99.90;;;;;;4821373;29;20137;-79
2023/12/29 07:04:50;;;;;;;23.83;4.53;;;9.40;99.90;;;;;;4821751;29;20076;-80
2023/12/29 07:07:16;;;;;;;18.25;4.03;;;9.40;99.90;;;;;;4837555;29;20118;-79
2023/12/29 07:09:41;;;;;;;23.98;4.85;;;9.40;99.90;;;;;;4840601;29;20125;-79
2023/12/29 07:12:07;;;;;;;21.00;4.18;;;9.30;99.90;;;;;;4839590;29;20122;-81
2023/12/29 07:14:35;;;;;;;22.02;3.97;;;9.40;99.90;;;;;;4822353;29;20053;-80
2023/12/29 07:17:02;;;;;;;24.95;4.20;;;9.30;99.90;;;;;;4838653;29;20053;-80
2023/12/29 07:19:33;;;;;;;23.08;4.75;;;9.30;99.90;;;;;;4840026;29;20050;-81
2023/12/29 07:21:59;;;;;;;19.35;4.15;;;9.30;99.90;;;;;;4836966;29;20058;-79
2023/12/29 07:24:25;;;;;;;20.00;4.10;;;9.20;99.90;;;;;;4839722;29;20041;-80
2023/12/29 07:26:50;;;;;;;22.95;4.65;;;9.20;99.90;;;;;;4837482;29;20092;-81
2023/12/29 07:29:16;;;;;;;20.83;4.10;;;9.90;99.90;;;;;;4842632;29;20065;-80
2023/12/29 07:31:41;;;;;;;21.33;4.05;;;9.10;99.90;;;;;;4856265;29;20082;-81
2023/12/29 07:34:07;;;;;;;19.92;4.03;;;9.10;99.90;;;;;;4840657;29;20046;-81
2023/12/29 07:36:33;;;;;;;20.35;3.70;;;9.20;99.90;;;;;;4838241;29;20068;-81
2023/12/29 07:38:58;;;;;;;20.30;3.85;;;9.00;99.90;;;;;;4837287;29;20073;-82
2023/12/29 07:41:24;;;;;;;17.05;3.85;;;9.00;99.90;;;;;;4837504;29;20053;-82
2023/12/29 07:43:49;;;;;;;21.13;4.30;;;9.00;99.90;;;;;;4837319;29;20050;-82
2023/12/29 07:46:26;;;;;;;20.25;4.00;;;9.00;99.90;;;;;;4837551;29;20054;-82
2023/12/29 07:48:52;;;;;;;25.25;4.35;;;9.00;99.90;;;;;;4837236;29;20061;-82
2023/12/29 07:51:18;;;;;;;18.15;4.63;;;9.00;99.90;;;;;;4836422;29;20457;-81
2023/12/29 07:53:44;;;;;;;23.10;4.72;;;9.00;99.90;;;;;;4837090;29;20049;-81
2023/12/29 07:56:13;;;;;;;18.15;3.63;;;9.00;99.90;;;;;;4836421;29;20042;-80
2023/12/29 07:58:38;;;;;;;23.45;3.72;;;9.00;99.90;;;;;;4837445;29;20866;-81
2023/12/29 08:01:04;;;;;;;15.90;3.63;;;9.10;99.90;;;;;;4821547;29;20182;-81
2023/12/29 08:03:30;;;;;;;25.08;5.07;;;9.20;99.90;;;;;;4837909;29;20521;-82
2023/12/29 08:05:55;;;;;;;19.40;4.80;;;9.10;99.90;;;;;;4838080;29;20053;-79
2023/12/29 08:08:21;;;;;;;16.55;3.33;;;9.70;99.90;;;;;;4836061;29;20160;-79
2023/12/29 08:10:46;;;;;;;15.38;3.63;;;9.20;99.90;;;;;;4838442;29;20149;-80
2023/12/29 08:13:12;;;;;;;21.15;4.20;;;9.80;99.90;;;;;;4834392;29;20047;-80
2023/12/29 08:15:38;;;;;;;16.17;3.50;;;9.20;99.90;;;;;;4831132;29;20085;-81
2023/12/29 08:18:04;;;;;;;18.42;4.30;;;9.30;99.90;;;;;;4838669;29;20046;-80
2023/12/29 08:20:30;;;;;;;15.75;3.92;;;10.00;99.90;;;;;;4836770;29;20095;-80
2023/12/29 08:22:56;;;;;;;22.75;4.13;;;9.30;99.90;;;;;;4833931;29;20094;-81
2023/12/29 08:25:22;;;;;;;18.50;3.45;;;9.30;99.90;;;;;;4838607;29;20966;-81
2023/12/29 08:27:48;;;;;;;19.70;3.95;;;9.30;99.90;;;;;;4837824;29;20195;-82
2023/12/29 08:30:14;;;;;;;18.75;4.72;;;9.40;99.90;;;;;;4839252;29;20046;-80
2023/12/29 08:32:39;;;;;;;19.08;4.30;;;9.40;99.90;;;;;;4835575;29;20500;-81
2023/12/29 08:35:06;;;;;;;18.58;3.72;;;9.40;99.90;;;;;;4837842;29;20058;-80
2023/12/29 08:37:33;;;;;;;17.08;3.40;;;9.60;99.90;;;;;;4837808;29;20798;-81
2023/12/29 08:39:59;;;;;;;14.65;3.20;;;9.40;99.90;;;;;;4852521;29;20590;-82
2023/12/29 08:42:25;;;;;;;16.65;4.03;;;10.10;99.90;;;;;;4821191;29;20489;-81
2023/12/29 08:44:50;;;;;;;16.00;3.05;;;9.40;99.90;;;;;;4821275;29;20055;-81
2023/12/29 08:47:16;;;;;;;17.17;3.88;;;9.40;99.90;;;;;;4819356;29;20047;-80
2023/12/29 08:49:42;;;;;;;21.05;3.55;;;9.40;99.90;;;;;;4818192;29;20050;-80
2023/12/29 08:52:09;;;;;;;18.85;3.45;;;9.40;99.90;;;;;;4817001;29;20050;-81
2023/12/29 08:54:36;;;;;;;12.10;3.28;;;9.40;99.90;;;;;;4829628;29;20124;-80
2023/12/29 08:57:02;;;;;;;12.05;2.58;;;9.40;99.90;;;;;;4838874;29;20061;-80
2023/12/29 08:59:28;;;;;;;13.80;2.80;;;9.30;99.90;;;;;;4839185;29;20128;-81
2023/12/29 09:01:54;;;;;;;13.82;2.60;;;9.30;99.90;;;;;;4838907;29;20186;-81
2023/12/29 09:04:19;;;;;;;10.45;2.70;;;9.20;99.90;;;;;;4834677;29;20096;-81
2023/12/29 09:06:45;;;;;;;13.02;3.40;;;9.20;99.90;;;;;;4818870;29;20054;-81
2023/12/29 09:09:12;;;;;;;15.88;3.92;;;9.20;99.90;;;;;;4819411;29;20088;-81
2023/12/29 09:11:39;;;;;;;13.35;2.83;;;9.10;99.90;;;;;;4819258;29;20137;-81
2023/12/29 09:14:05;;;;;;;17.15;3.63;;;9.10;99.90;;;;;;4826927;29;20525;-81
2023/12/29 09:16:30;;;;;;;13.07;3.40;;;9.20;99.90;;;;;;4837156;29;20049;-81
2023/12/29 09:18:56;;;;;;;16.85;3.97;;;9.10;99.90;;;;;;4837617;29;20101;-81
2023/12/29 09:21:21;;;;;;;12.45;3.63;;;9.20;99.90;;;;;;4837096;29;20141;-80
2023/12/29 09:23:47;;;;;;;11.55;3.13;;;9.20;99.90;;;;;;4838038;29;20057;-80
2023/12/29 09:26:13;;;;;;;10.38;3.25;;;9.20;99.90;;;;;;4837155;29;20049;-81
2023/12/29 09:28:44;;;;;;;14.27;3.63;;;9.30;99.90;;;;;;4838344;29;20102;-81
2023/12/29 09:31:12;;;;;;;10.95;3.88;;;9.30;99.90;;;;;;4827571;29;20054;-81
2023/12/29 09:33:38;;;;;;;12.45;3.17;;;9.30;99.90;;;;;;4818201;29;20136;-81
2023/12/29 09:36:04;;;;;;;13.20;3.47;;;9.30;99.90;;;;;;4819255;29;20146;-80
2023/12/29 09:38:30;;;;;;;8.85;3.55;;;9.30;99.90;;;;;;4816993;29;20164;-80
2023/12/29 09:41:02;;;;;;;13.82;4.03;;;9.30;99.90;;;;;;4818317;29;20055;-81
2023/12/29 09:43:31;;;;;;;10.48;3.65;;;9.30;99.90;;;;;;4817991;29;20070;-81
2023/12/29 09:45:58;;;;;;;12.57;3.25;;;9.30;99.90;;;;;;4818132;29;20393;-81
2023/12/29 09:48:27;;;;;;;11.73;3.13;;;9.30;99.90;;;;;;4818044;29;20078;-80
2023/12/29 09:50:54;;;;;;;10.15;3.13;;;9.40;99.90;;;;;;4818018;29;20058;-80
2023/12/29 09:53:21;;;;;;;7.68;2.60;;;9.50;99.90;;;;;;4835699;29;20058;-81
2023/12/29 09:55:49;;;;;;;12.27;3.28;;;9.50;99.90;;;;;;4835175;29;20070;-81
2023/12/29 09:58:15;;;;;;;10.75;3.22;;;9.50;99.90;;;;;;4837353;29;20060;-80
2023/12/29 10:00:42;;;;;;;8.55;2.75;;;9.50;99.90;;;;;;4821077;29;20460;-81
2023/12/29 10:03:09;;;;;;;9.05;2.90;;;9.50;99.90;;;;;;4834417;29;20065;-80
2023/12/29 10:05:34;;;;;;;10.23;3.65;;;9.50;99.90;;;;;;4837550;29;20608;-81
2023/12/29 10:08:03;;;;;;;13.73;3.42;;;9.50;99.90;;;;;;4836185;29;20046;-81
2023/12/29 10:10:30;;;;;;;6.75;2.70;;;9.50;99.90;;;;;;4837112;29;20144;-80
2023/12/29 10:12:57;;;;;;;10.60;3.05;;;9.50;99.90;;;;;;4826816;29;20050;-81
2023/12/29 10:15:35;;;;;;;11.48;3.08;;;9.50;99.90;;;;;;4818120;29;20046;-80
2023/12/29 10:18:38;;;;;;;12.88;3.00;;;9.50;99.90;;;;;;4817437;29;20382;-81
2023/12/29 10:21:26;;;;;;;8.38;2.60;;;9.50;99.90;;;;;;4823520;29;20054;-81
2023/12/29 10:24:20;;;;;;;7.78;2.80;;;9.50;99.90;;;;;;4829531;29;20134;-80
2023/12/29 10:26:47;;;;;;;5.90;2.40;;;9.50;99.90;;;;;;4833391;29;20137;-80
2023/12/29 10:29:12;;;;;;;10.13;2.70;;;9.90;99.90;;;;;;4835261;29;20046;-83
2023/12/29 10:31:38;;;;;;;10.85;3.10;;;9.40;99.90;;;;;;4819820;29;20058;-79
2023/12/29 10:34:30;;;;;;;8.48;2.35;;;9.40;99.90;;;;;;4832417;29;20045;-79
2023/12/29 10:36:56;;;;;;;7.80;2.25;;;9.40;99.90;;;;;;4835220;29;20053;-79
2023/12/29 10:39:22;;;;;;;8.98;2.30;;;9.40;99.90;;;;;;4834571;29;20042;-78
2023/12/29 10:41:48;;;;;;;5.05;1.95;;;10.20;99.90;;;;;;4835399;29;20054;-79
2023/12/29 10:44:14;;;;;;;5.93;1.60;;;9.40;99.90;;;;;;4834602;29;20042;-80
2023/12/29 10:46:39;;;;;;;2.55;1.25;;;9.30;99.90;;;;;;4836418;29;20103;-80
2023/12/29 10:49:13;;;;;;;7.28;1.50;;;9.30;99.90;;;;;;4835870;29;20046;-81
2023/12/29 10:51:39;;;;;;;6.43;2.17;;;9.70;99.90;;;;;;4823119;29;20058;-81
2023/12/29 10:54:06;;;;;;;9.10;2.40;;;9.20;99.90;;;;;;4819863;29;20050;-77
2023/12/29 10:56:32;;;;;;;5.80;1.80;;;9.10;99.90;;;;;;4820137;29;20059;-78
2023/12/29 10:59:05;;;;;;;7.28;1.50;;;9.10;99.90;;;;;;4834202;29;20548;-81
2023/12/29 11:01:33;;;;;;;7.00;1.67;;;9.10;99.90;;;;;;4838732;29;20098;-79
2023/12/29 11:04:01;;;;;;;8.32;1.65;;;9.00;99.90;;;;;;4839204;29;20061;-77
2023/12/29 11:06:28;;;;;;;4.88;1.30;;;9.00;99.90;;;;;;4851877;29;20042;-79
2023/12/29 11:08:54;;;;;;;8.40;1.98;;;9.00;99.90;;;;;;4838185;29;20561;-78
2023/12/29 11:11:21;;;;;;;10.57;2.22;;;9.00;99.90;;;;;;4837695;29;20083;-79
2023/12/29 11:13:47;;;;;;;10.25;2.03;;;9.00;99.90;;;;;;4838419;29;20049;-79
2023/12/29 11:16:17;;;;;;;6.68;2.00;;;9.10;99.90;;;;;;4828979;29;20058;-77
2023/12/29 11:18:44;;;;;;;9.05;1.70;;;9.10;99.90;;;;;;4820047;29;20058;-78
2023/12/29 11:21:12;;;;;;;9.50;2.60;;;9.20;99.90;;;;;;4827244;29;20401;-78
2023/12/29 11:23:38;;;;;;;10.90;2.33;;;9.20;99.90;;;;;;4838911;29;20042;-77
2023/12/29 11:26:04;;;;;;;9.90;2.30;;;9.30;99.90;;;;;;4838653;29;20042;-76
2023/12/29 11:28:30;;;;;;;8.68;2.40;;;9.30;99.90;;;;;;4848086;29;20115;-78
2023/12/29 11:30:56;;;;;;;10.73;2.65;;;9.30;99.90;;;;;;4839320;29;20789;-80
2023/12/29 11:33:30;;;;;;;9.68;2.10;;;9.40;99.90;;;;;;4837507;29;20083;-80
2023/12/29 11:36:04;;;;;;;8.45;2.08;;;9.50;99.90;;;;;;4838600;29;20087;-79
2023/12/29 11:38:42;;;;;;;10.68;2.42;;;9.50;99.90;;;;;;4849665;29;20054;-79
2023/12/29 11:41:21;;;;;;;13.07;2.95;;;9.50;99.90;;;;;;4835833;29;20053;-79
2023/12/29 11:43:57;;;;;;;11.32;2.30;;;9.50;99.90;;;;;;4824396;29;20057;-79
2023/12/29 11:46:39;;;;;;;14.25;2.30;;;9.50;99.90;;;;;;4840589;29;20084;-79
2023/12/29 11:49:05;;;;;;;13.00;3.03;;;9.50;99.90;;;;;;4838775;29;20050;-79
2023/12/29 11:51:43;;;;;;;8.13;2.28;;;9.50;99.90;;;;;;4832842;29;20472;-78
2023/12/29 11:54:09;;;;;;;10.43;2.58;;;9.50;99.90;;;;;;4838866;29;20494;-81
2023/12/29 11:56:40;;;;;;;15.73;2.60;;;9.50;99.90;;;;;;4838843;29;20646;-81
2023/12/29 11:59:13;;;;;;;11.90;2.53;;;9.10;99.90;;;;;;4838408;29;20057;-81
2023/12/29 12:01:39;;;;;;;14.75;2.20;;;9.50;99.90;;;;;;4835543;29;20058;-82
2023/12/29 12:04:25;;;;;;;15.07;2.40;;;9.50;99.90;;;;;;4835125;29;20042;-81
2023/12/29 12:06:50;;;;;;;16.65;3.10;;;9.50;99.90;;;;;;4820321;29;20957;-81
2023/12/29 12:09:25;;;;;;;11.30;2.30;;;9.50;99.90;;;;;;4820217;29;20141;-80
2023/12/29 12:11:50;;;;;;;12.52;2.72;;;9.50;99.90;;;;;;4838160;29;20393;-79
2023/12/29 12:14:45;;;;;;;12.02;2.42;;;9.40;99.90;;;;;;4836152;29;20065;-78
2023/12/29 12:17:11;;;;;;;14.05;2.33;;;9.80;99.90;;;;;;4834527;29;20050;-78
2023/12/29 12:19:37;;;;;;;15.02;3.42;;;9.50;99.90;;;;;;4822220;29;20754;-76
2023/12/29 12:22:03;;;;;;;16.77;2.80;;;9.50;99.90;;;;;;4837868;29;20069;-76
2023/12/29 12:24:28;;;;;;;13.10;2.50;;;9.50;99.90;;;;;;4837288;29;20050;-77
2023/12/29 12:26:54;;;;;;;19.05;3.05;;;9.50;99.90;;;;;;4837660;29;20042;-76
2023/12/29 12:29:20;;;;;;;11.10;2.42;;;9.50;99.90;;;;;;4838222;29;20054;-78
2023/12/29 12:31:56;;;;;;;15.70;3.05;;;9.60;99.90;;;;;;4832735;29;20521;-77
2023/12/29 12:34:22;;;;;;;8.07;1.83;;;9.60;99.90;;;;;;4819571;29;20443;-78
2023/12/29 12:36:52;;;;;;;6.70;2.08;;;9.70;99.90;;;;;;4833911;29;20066;-80
2023/12/29 12:39:18;;;;;;;10.57;2.10;;;9.70;99.90;;;;;;4821149;29;20048;-79
2023/12/29 12:41:44;;;;;;;13.70;2.50;;;9.70;99.90;;;;;;4828570;29;20497;-78
2023/12/29 12:44:14;;;;;;;7.47;2.00;;;9.60;99.90;;;;;;4837528;29;20046;-77
2023/12/29 12:46:58;;;;;;;7.68;2.08;;;9.60;99.90;;;;;;4838983;29;20053;-78
2023/12/29 12:49:24;;;;;;;10.93;2.20;;;9.60;99.90;;;;;;4836621;29;20087;-78